Huvudsida
METAR-TAF:

METAR-TAF

Flygplatser :

Gurayat, Saudiarabien

latitud: 31-24N, longitud: 037-16E, höjd: 509 m

Aktuellt väderrapport

Denna rapport gjordes för 1 timme och 10 minuter sedan, klockan 19:00 UTC
Vind 2 kt från nord
Temperatur 16°C
Fuktighet 36%
Tryck 1017 hPa
Sikt 10 km eller mer
Inga moln under 1 500 m eller inga cumulonimbus

METAR: OEGT 111900Z 01002KT CAVOK 16/01 Q1017 NOSIG

Tid: 23:10 (20:10 UTC)

Väderprognos

Denna rapport gjordes för 9 timmar och 10 minuter sedan, klockan 11:00 UTC
Prognos gäller från 11 kl. 12 UTC till 12 kl. 18 UTC
Vind 12 kt från ost
Sikt 10 km eller mer
Få moln på en höjd av 4000 ft
Blir
från 11 kl. 20 UTC till 11 kl. 22 UTC
Vind 3 kt varierande vindriktning

TAF: OEGT 111100Z 1112/1218 09012KT 9999 FEW040 BECMG 1120/1122 VRB03KT

Aktuella väderrapporter och prognoser från 4000 flygplatser (METAR- och TAF-rapporter).

De tillgängliga stationerna syns som gula och röda prickar på kartan.

För musen över prickarna för att se namnen på stationerna.

Klicka sedan för att få väderrapporter och prognoser.

För att ändra kartan: Klicka på de gröna knapparna med ett svart kors på för att zooma in; den gröna knappen med ett streck på för att zooma ut; eller på de gröna pilarna för angränsande kartor.


METAR-TAF: